Time;durP1;ratioP1;P1;durP2;ratioP2;P2;SDS_P1;SDS_P2;PMS_P1;PMS_P2;Temp;Humidity;BMP_temperature;BMP_pressure;BME280_temperature;BME280_humidity;BME280_pressure;Samples;Min_cycle;Max_cycle;Signal;HPM_P1;HPM_P2
2022/11/19 07:27:30;;;;;;;13.00;7.20;;;;;;;5.46;100.00;95474.50;4918901;28;20042;-86
2022/11/19 07:29:56;;;;;;;11.33;7.93;;;;;;;5.75;100.00;95476.13;4891631;29;20039;-86
2022/11/19 07:32:21;;;;;;;11.93;8.10;;;;;;;6.16;100.00;95479.94;4885979;28;20790;-91
2022/11/19 07:34:47;;;;;;;10.07;7.37;;;;;;;5.99;100.00;95486.00;4902457;29;20047;-90
2022/11/19 07:37:13;;;;;;;7.90;5.57;;;;;;;6.22;100.00;95488.97;4871560;28;20039;-86
2022/11/19 07:39:39;;;;;;;7.63;4.47;;;;;;;5.95;100.00;95492.50;4859545;29;20039;-84
2022/11/19 07:44:54;;;;;;;6.73;4.17;;;;;;;5.91;100.00;95495.38;4875978;29;20035;-88
2022/11/19 07:47:20;;;;;;;50.60;7.27;;;;;;;6.12;100.00;95491.66;4891142;28;20035;-84
2022/11/19 07:49:46;;;;;;;11.30;4.77;;;;;;;5.90;100.00;95495.50;4903270;29;20065;-86
2022/11/19 07:52:12;;;;;;;23.67;5.73;;;;;;;6.14;100.00;95495.78;4890582;29;20187;-84
2022/11/19 07:54:44;;;;;;;178.10;18.37;;;;;;;6.63;100.00;95495.31;4861509;29;20054;-87
2022/11/19 07:57:10;;;;;;;111.73;14.57;;;;;;;6.41;100.00;95494.03;4882101;28;20023;-87
2022/11/19 07:59:36;;;;;;;187.70;24.83;;;;;;;7.13;100.00;95497.25;4905520;28;20035;-84
2022/11/19 08:02:02;;;;;;;113.67;18.37;;;;;;;6.94;100.00;95490.47;4948250;29;20512;-85
2022/11/19 08:04:28;;;;;;;214.60;39.77;;;;;;;7.63;100.00;95486.00;4939759;28;20129;-86
2022/11/19 08:06:54;;;;;;;214.47;26.60;;;;;;;7.36;100.00;95489.69;4920790;29;20031;-88
2022/11/19 08:09:19;;;;;;;249.07;30.90;;;;;;;7.13;100.00;95484.19;4924851;28;20035;-85
2022/11/19 08:11:45;;;;;;;228.90;30.60;;;;;;;7.03;100.00;95486.09;4941368;28;20412;-88
2022/11/19 08:14:12;;;;;;;313.37;38.43;;;;;;;7.36;100.00;95486.25;4943058;28;20039;-85
2022/11/19 08:19:57;;;;;;;608.23;79.93;;;;;;;7.97;100.00;95482.47;4944354;29;20041;-87
2022/11/19 08:22:23;;;;;;;367.57;43.83;;;;;;;8.03;100.00;95493.13;4938093;28;20079;-84
2022/11/19 08:24:48;;;;;;;240.70;28.57;;;;;;;7.57;100.00;95490.06;4939024;29;20042;-84
2022/11/19 08:27:16;;;;;;;355.73;45.60;;;;;;;7.71;100.00;95491.28;4941566;28;20042;-81
2022/11/19 08:29:41;;;;;;;208.50;25.17;;;;;;;7.67;100.00;95489.13;4930786;28;20030;-87
2022/11/19 08:32:07;;;;;;;361.27;41.30;;;;;;;7.62;100.00;95486.19;4939559;28;20096;-88
2022/11/19 08:34:33;;;;;;;26.97;5.17;;;;;;;7.00;100.00;95489.03;4937781;29;20074;-90
2022/11/19 08:37:02;;;;;;;8.50;3.80;;;;;;;6.73;100.00;95488.22;4921371;29;20054;-88
2022/11/19 08:39:35;;;;;;;40.20;7.93;;;;;;;6.71;100.00;95505.84;4920502;29;20536;-86
2022/11/19 08:44:45;;;;;;;10.73;4.20;;;;;;;6.63;100.00;95510.19;4926516;28;20049;-93
2022/11/19 08:47:14;;;;;;;40.10;6.43;;;;;;;6.84;100.00;95510.66;4906554;28;20035;-88
2022/11/19 08:49:42;;;;;;;60.63;12.00;;;;;;;7.04;100.00;95508.63;4916005;29;20040;-90
2022/11/19 08:52:07;;;;;;;76.67;32.83;;;;;;;7.20;100.00;95519.19;4926448;28;20531;-89
2022/11/19 08:54:33;;;;;;;66.67;11.43;;;;;;;7.30;100.00;95517.28;4936543;29;20039;-84
2022/11/19 08:57:02;;;;;;;23.80;6.53;;;;;;;7.29;100.00;95514.81;4938421;29;20110;-83
2022/11/19 08:59:41;;;;;;;33.80;10.07;;;;;;;7.63;100.00;95517.41;4923790;29;20038;-89
2022/11/19 09:02:09;;;;;;;62.00;12.13;;;;;;;7.67;100.00;95521.34;4943549;29;20409;-86
2022/11/19 09:04:40;;;;;;;39.87;8.57;;;;;;;7.59;100.00;95518.72;4933936;28;20625;-85
2022/11/19 09:07:07;;;;;;;48.47;11.43;;;;;;;7.63;100.00;95527.88;4890817;29;20047;-88
2022/11/19 09:09:34;;;;;;;16.87;4.73;;;;;;;7.26;100.00;95526.41;4911560;29;20046;-87
2022/11/19 09:12:07;;;;;;;60.47;10.97;;;;;;;7.29;100.00;95526.09;4926236;28;20486;-87
2022/11/19 09:14:34;;;;;;;226.00;26.90;;;;;;;7.90;100.00;95528.63;4910092;28;20492;-87
2022/11/19 09:17:00;;;;;;;427.80;51.43;;;;;;;8.26;100.00;95527.38;4935319;29;20039;-90
2022/11/19 09:19:27;;;;;;;288.97;33.47;;;;;;;7.87;100.00;95528.94;4906369;28;20066;-89
2022/11/19 09:21:52;;;;;;;86.80;12.53;;;;;;;7.35;100.00;95527.28;4920000;29;20050;-91
2022/11/19 09:24:18;;;;;;;162.37;22.60;;;;;;;7.69;100.00;95529.88;4927298;28;20039;-91
2022/11/19 09:26:44;;;;;;;276.87;32.00;;;;;;;7.57;100.00;95528.50;4928533;29;20043;-90
2022/11/19 09:29:16;;;;;;;332.77;47.70;;;;;;;7.83;100.00;95525.81;4941348;29;20066;-93
2022/11/19 09:31:45;;;;;;;236.33;29.90;;;;;;;7.83;100.00;95525.00;4944718;29;20071;-92
2022/11/19 09:34:11;;;;;;;163.50;38.07;;;;;;;7.60;100.00;95532.63;4924710;29;20059;-91
2022/11/19 09:36:37;;;;;;;409.43;54.93;;;;;;;8.12;100.00;95537.69;4907434;29;20469;-88
2022/11/19 09:39:03;;;;;;;195.13;28.13;;;;;;;7.76;100.00;95543.94;4897866;29;20039;-88
2022/11/19 09:41:52;;;;;;;206.70;29.03;;;;;;;7.88;100.00;95541.88;4896008;28;20031;-88
2022/11/19 09:44:23;;;;;;;60.23;11.87;;;;;;;7.80;100.00;95544.44;4914045;28;20029;-91
2022/11/19 09:47:04;;;;;;;27.93;6.33;;;;;;;7.68;100.00;95543.94;4930410;29;20043;-89
2022/11/19 09:50:01;;;;;;;36.50;6.47;;;;;;;7.29;100.00;95548.81;4928396;28;20046;-87
2022/11/19 09:53:10;;;;;;;13.00;4.60;;;;;;;7.47;100.00;95546.13;4930348;28;20035;-88
2022/11/19 09:55:40;;;;;;;79.20;16.47;;;;;;;7.35;100.00;95542.97;4872755;29;20076;-89
2022/11/19 09:58:15;;;;;;;109.40;16.90;;;;;;;7.38;100.00;95547.06;4947443;29;20102;-90
2022/11/19 10:00:44;;;;;;;218.50;24.77;;;;;;;7.25;100.00;95547.50;4946640;28;20066;-91
2022/11/19 10:03:21;;;;;;;73.50;8.47;;;;;;;7.01;100.00;95537.72;4917096;29;20067;-90
2022/11/19 10:06:04;;;;;;;245.73;29.43;;;;;;;7.26;100.00;95541.28;4941129;29;20058;-89
2022/11/19 10:08:33;;;;;;;;;;;;;;;7.24;100.00;95543.22;4941313;29;20042;-91
2022/11/19 10:11:28;;;;;;;414.63;49.23;;;;;;;8.07;100.00;95545.19;4933637;29;19914;-90
2022/11/19 10:14:38;;;;;;;136.33;22.70;;;;;;;8.37;100.00;95541.94;4937037;29;20039;-90
2022/11/19 10:17:22;;;;;;;325.10;40.43;;;;;;;8.56;100.00;95551.34;4939868;29;20043;-89
2022/11/19 10:20:09;;;;;;;380.50;59.53;;;;;;;8.71;100.00;95535.75;4940945;29;20039;-88
2022/11/19 10:22:43;;;;;;;280.67;34.97;;;;;;;9.01;100.00;95539.50;4936153;29;20046;-90
2022/11/19 10:25:17;;;;;;;62.37;9.17;;;;;;;8.22;100.00;95527.88;4918811;28;20047;-89
2022/11/19 10:27:50;;;;;;;198.67;26.23;;;;;;;8.73;100.00;95537.25;4945731;28;20066;-87
2022/11/19 10:30:22;;;;;;;133.90;14.50;;;;;;;8.85;100.00;95526.41;4939229;29;20046;-87
2022/11/19 10:33:22;;;;;;;6.90;2.30;;;;;;;7.97;100.00;95530.44;4947117;29;20483;-87
2022/11/19 10:36:23;;;;;;;5.43;2.43;;;;;;;7.66;100.00;95531.97;4940452;29;20118;-87
2022/11/19 10:39:06;;;;;;;8.57;2.97;;;;;;;7.52;100.00;95533.41;4937431;28;20027;-88
2022/11/19 10:41:48;;;;;;;18.50;3.57;;;;;;;7.73;100.00;95536.41;4924060;29;20043;-88
2022/11/19 10:44:44;;;;;;;280.57;34.57;;;;;;;7.89;100.00;95535.66;4934670;28;20043;-89
2022/11/19 10:47:18;;;;;;;329.03;39.77;;;;;;;8.41;100.00;95537.22;4926468;28;20034;-88
2022/11/19 10:49:49;;;;;;;305.57;36.93;;;;;;;9.05;100.00;95534.75;4939160;29;20035;-89
2022/11/19 10:52:27;;;;;;;222.67;35.83;;;;;;;9.05;100.00;95530.31;4938861;28;20045;-89
2022/11/19 10:55:37;;;;;;;139.73;20.20;;;;;;;8.20;100.00;95517.53;4944511;28;20043;-93
2022/11/19 10:58:38;;;;;;;14.13;3.93;;;;;;;7.42;100.00;95520.44;4908562;29;20040;-94
2022/11/19 11:01:30;;;;;;;72.53;9.40;;;;;;;7.27;100.00;95528.03;4940898;28;20536;-86
2022/11/19 11:04:21;;;;;;;4.90;1.80;;;;;;;6.69;100.00;95518.22;4940536;29;20051;-89
2022/11/19 11:06:57;;;;;;;3.53;1.87;;;;;;;6.44;100.00;95525.09;4923305;29;20039;-89
2022/11/19 11:09:42;;;;;;;4.33;2.23;;;;;;;6.28;100.00;95525.75;4932002;28;20201;-88
2022/11/19 11:15:26;;;;;;;59.90;26.20;;;;;;;6.27;100.00;95541.56;4940670;28;20121;-88
2022/11/19 11:18:06;;;;;;;54.70;16.90;;;;;;;6.85;100.00;95535.81;4932454;29;20046;-87
2022/11/19 11:20:44;;;;;;;16.27;4.37;;;;;;;6.71;100.00;95539.81;4922032;29;20047;-89
2022/11/19 11:23:19;;;;;;;42.03;9.47;;;;;;;6.81;100.00;95532.69;4953396;28;20049;-92
2022/11/19 11:29:34;;;;;;;14.50;4.47;;;;;;;6.91;100.00;95521.31;4961734;28;20082;-90
2022/11/19 11:32:25;;;;;;;53.37;11.03;;;;;;;8.09;100.00;95519.66;4934120;29;20039;-94
2022/11/19 11:35:30;;;;;;;19.47;4.47;;;;;;;7.90;100.00;95518.16;4944280;29;20043;-91
2022/11/19 11:42:27;;;;;;;9.43;4.80;;;;;;;6.52;100.00;95521.72;4875549;29;21157;-90
2022/11/19 11:52:52;;;;;;;5.57;2.60;;;;;;;6.59;100.00;95512.28;4956694;29;20136;-92
2022/11/19 11:59:51;;;;;;;3.73;2.17;;;;;;;6.24;100.00;95506.16;4970955;28;20103;-89
2022/11/19 12:11:15;;;;;;;5.30;2.40;;;;;;;5.92;100.00;95519.69;4962390;28;20066;-89
2022/11/19 12:14:19;;;;;;;3.97;2.00;;;;;;;5.91;100.00;95525.88;4938585;29;20129;-89
2022/11/19 12:36:45;;;;;;;7.20;3.40;;;;;;;5.75;100.00;95517.88;4876311;29;20062;-90
2022/11/19 12:39:38;;;;;;;5.03;2.63;;;;;;;5.79;100.00;95527.03;4867906;29;20049;-92
2022/11/19 12:42:25;;;;;;;9.07;4.07;;;;;;;5.74;100.00;95527.50;4898751;29;20050;-92
2022/11/19 12:45:05;;;;;;;7.10;3.03;;;;;;;5.74;100.00;95535.31;4924461;29;20536;-92
2022/11/19 12:48:01;;;;;;;10.07;4.40;;;;;;;5.69;100.00;95534.91;4937851;29;20039;-90
2022/11/19 12:51:00;;;;;;;7.17;3.33;;;;;;;5.70;100.00;95530.53;4936023;29;20035;-88
2022/11/19 12:53:37;;;;;;;7.57;3.17;;;;;;;5.70;100.00;95535.75;4925465;29;20572;-88
2022/11/19 12:56:23;;;;;;;6.53;3.07;;;;;;;5.67;100.00;95536.88;4929421;29;20081;-88
2022/11/19 12:58:58;;;;;;;5.03;2.57;;;;;;;5.62;100.00;95533.88;4936423;29;20053;-88
2022/11/19 13:01:34;;;;;;;5.17;2.30;;;;;;;5.57;100.00;95542.13;4920990;29;20557;-88
2022/11/19 13:04:25;;;;;;;4.23;2.10;;;;;;;5.56;100.00;95539.66;4923728;29;20148;-87
2022/11/19 13:15:15;;;;;;;4.03;2.07;;;;;;;5.47;100.00;95543.16;4769505;30;20090;-87
2022/11/19 13:26:09;;;;;;;6.40;2.93;;;;;;;5.60;100.00;95543.63;4762968;30;20055;-87
2022/11/19 13:30:03;;;;;;;5.43;2.40;;;;;;;5.62;100.00;95544.31;4745558;30;20040;-88
2022/11/19 13:36:49;;;;;;;4.93;1.80;;;;;;;5.59;100.00;95544.59;4731331;30;20502;-87
2022/11/19 13:55:34;;;;;;;3.83;2.23;;;;;;;5.63;100.00;95543.31;4827774;29;20064;-88
2022/11/19 13:58:49;;;;;;;6.03;1.80;;;;;;;5.58;100.00;95538.56;4758781;29;20044;-88
2022/11/19 14:09:56;;;;;;;3.30;1.70;;;;;;;5.49;100.00;95542.03;4931230;29;20112;-87
2022/11/19 14:13:36;;;;;;;5.37;2.00;;;;;;;5.78;100.00;95551.50;4931839;29;20174;-89
2022/11/19 14:33:24;;;;;;;6.93;2.07;;;;;;;5.38;100.00;95550.06;4906869;29;20051;-90
2022/11/19 14:35:54;;;;;;;4.17;2.30;;;;;;;5.33;100.00;95552.25;4933177;29;20050;-88
2022/11/19 14:38:32;;;;;;;7.27;2.60;;;;;;;5.32;100.00;95558.44;4925823;29;20066;-92
2022/11/19 14:41:44;;;;;;;7.03;2.53;;;;;;;5.31;100.00;95552.41;4925913;29;20043;-89
2022/11/19 14:44:31;;;;;;;6.30;3.13;;;;;;;5.29;100.00;95558.72;4918601;29;20498;-88
2022/11/19 14:47:22;;;;;;;13.47;7.17;;;;;;;5.34;100.00;95557.34;4939766;28;20130;-88
2022/11/19 14:49:53;;;;;;;8.20;4.97;;;;;;;5.34;100.00;95559.94;4930483;29;20043;-88
2022/11/19 14:52:31;;;;;;;10.40;5.97;;;;;;;5.36;100.00;95555.38;4936556;28;20046;-88
2022/11/19 14:55:17;;;;;;;11.97;6.23;;;;;;;5.35;100.00;95560.75;4936154;29;20032;-90
2022/11/19 14:58:03;;;;;;;6.57;3.90;;;;;;;5.32;100.00;95554.03;4925830;29;20102;-89
2022/11/19 15:01:09;;;;;;;6.00;3.40;;;;;;;5.36;100.00;95551.97;4924390;29;20031;-89
2022/11/19 15:03:36;;;;;;;8.67;3.83;;;;;;;5.38;100.00;95556.09;4953033;28;20042;-89
2022/11/19 15:06:06;;;;;;;6.53;3.67;;;;;;;5.33;100.00;95554.84;4950641;28;20043;-90
2022/11/19 15:08:50;;;;;;;6.20;3.63;;;;;;;5.31;100.00;95551.59;4925050;29;20398;-89
2022/11/19 15:11:17;;;;;;;7.90;4.50;;;;;;;5.29;100.00;95554.31;4930235;29;20035;-88
2022/11/19 15:25:49;;;;;;;11.63;6.33;;;;;;;5.35;100.00;95555.56;4941677;29;20066;-91
2022/11/19 15:29:10;;;;;;;15.20;10.13;;;;;;;5.29;100.00;95559.53;4926247;29;20036;-92
2022/11/19 15:32:19;;;;;;;9.73;6.60;;;;;;;5.24;100.00;95569.59;4949547;29;20043;-87
2022/11/19 15:35:03;;;;;;;5.83;3.83;;;;;;;4.84;100.00;95572.44;4919763;29;20077;-87
2022/11/19 15:38:01;;;;;;;5.73;2.17;;;;;;;4.56;100.00;95569.75;4914076;29;20035;-86
2022/11/19 15:40:32;;;;;;;3.47;1.87;;;;;;;4.47;100.00;95578.38;4894195;29;20047;-85
2022/11/19 15:43:20;;;;;;;5.90;3.77;;;;;;;4.44;100.00;95579.47;4923904;29;20031;-86
2022/11/19 15:46:06;;;;;;;4.67;2.57;;;;;;;4.43;100.00;95585.66;4925857;29;20063;-87
2022/11/19 15:49:09;;;;;;;6.10;2.77;;;;;;;4.27;100.00;95584.53;4949216;28;20108;-87
2022/11/19 15:52:15;;;;;;;6.17;3.60;;;;;;;4.18;100.00;95583.56;4936344;28;20075;-85
2022/11/19 15:54:41;;;;;;;11.67;4.83;;;;;;;4.18;100.00;95583.56;4937735;28;20039;-86
2022/11/19 15:57:27;;;;;;;8.70;5.37;;;;;;;4.13;100.00;95588.38;4963579;28;20042;-88
2022/11/19 16:00:03;;;;;;;7.33;4.70;;;;;;;4.14;100.00;95592.63;4934380;29;20040;-85
2022/11/19 16:02:41;;;;;;;9.43;8.47;;;;;;;4.13;100.00;95583.16;4923110;28;20043;-90
2022/11/19 16:05:22;;;;;;;8.00;5.40;;;;;;;4.14;100.00;95585.63;4928401;29;20111;-85
2022/11/19 16:07:51;;;;;;;7.43;3.53;;;;;;;4.18;100.00;95588.78;4922182;29;20460;-88
2022/11/19 16:10:34;;;;;;;5.60;3.37;;;;;;;4.14;100.00;95593.44;4919391;29;20074;-88
2022/11/19 16:18:54;;;;;;;5.40;3.07;;;;;;;4.21;100.00;95598.91;4938568;29;20047;-90
2022/11/19 16:21:31;;;;;;;6.53;4.20;;;;;;;4.06;100.00;95598.50;4904535;28;20051;-90
2022/11/19 16:26:50;;;;;;;4.07;2.30;;;;;;;3.99;100.00;95603.41;4937650;29;20042;-86
2022/11/19 16:29:21;;;;;;;3.90;2.37;;;;;;;4.05;100.00;95604.63;4918925;29;20040;-86
2022/11/19 16:31:53;;;;;;;4.80;2.80;;;;;;;4.04;100.00;95607.38;4920812;29;20605;-85
2022/11/19 16:34:29;;;;;;;5.13;3.10;;;;;;;4.12;100.00;95602.31;4928459;29;20028;-85
2022/11/19 16:36:55;;;;;;;4.43;2.30;;;;;;;4.03;100.00;95600.56;4936637;29;20034;-85
2022/11/19 16:39:50;;;;;;;7.90;2.97;;;;;;;4.10;100.00;95606.84;4921878;29;20062;-87
2022/11/19 16:45:45;;;;;;;21.73;14.97;;;;;;;4.08;100.00;95608.75;4947116;28;20034;-89
2022/11/19 16:48:40;;;;;;;16.27;11.13;;;;;;;4.11;100.00;95609.31;4935854;29;20036;-88
2022/11/19 16:51:34;;;;;;;10.40;6.60;;;;;;;4.17;100.00;95618.38;4917321;29;20074;-87
2022/11/19 16:54:01;;;;;;;6.25;4.07;;;;;;;4.21;100.00;95614.53;4947845;28;20426;-86
2022/11/19 16:56:34;;;;;;;5.23;3.23;;;;;;;4.21;100.00;95617.13;4922492;29;20035;-86
2022/11/19 16:59:02;;;;;;;4.30;2.58;;;;;;;4.19;100.00;95606.88;4937844;29;20046;-85
2022/11/19 17:01:30;;;;;;;5.30;3.17;;;;;;;4.25;100.00;95610.69;4936780;29;20433;-84
2022/11/19 17:04:03;;;;;;;5.23;2.80;;;;;;;4.18;100.00;95620.81;4936563;29;20043;-83
2022/11/19 17:06:35;;;;;;;6.00;3.47;;;;;;;4.17;100.00;95623.56;4914044;29;20091;-84
2022/11/19 17:09:04;;;;;;;5.80;3.90;;;;;;;4.15;100.00;95623.69;4935264;28;20438;-83
2022/11/19 17:14:50;;;;;;;8.37;5.23;;;;;;;4.23;100.00;95618.66;4957773;28;20149;-84
2022/11/19 17:17:37;;;;;;;7.80;5.33;;;;;;;4.28;100.00;95618.22;4893650;28;20130;-83
2022/11/19 17:20:30;;;;;;;7.87;4.13;;;;;;;4.20;100.00;95631.09;4904215;29;20497;-63
2022/11/19 17:22:58;;;;;;;6.67;3.87;;;;;;;4.18;100.00;95638.22;4945572;28;20086;-83
2022/11/19 17:25:24;;;;;;;5.87;3.57;;;;;;;4.21;100.00;95637.94;4933957;28;20038;-82
2022/11/19 17:27:56;;;;;;;6.40;4.23;;;;;;;4.13;100.00;95635.22;4933776;29;20063;-83
2022/11/19 17:30:39;;;;;;;6.30;3.80;;;;;;;4.14;100.00;95634.25;4916907;29;20039;-83
2022/11/19 17:33:05;;;;;;;6.10;4.75;;;;;;;4.19;100.00;95634.66;4933641;29;20031;-83
2022/11/19 17:35:46;;;;;;;9.67;6.90;;;;;;;4.17;100.00;95639.19;4933303;29;20035;-83
2022/11/19 17:38:26;;;;;;;7.33;5.80;;;;;;;4.17;100.00;95632.19;4932569;29;20027;-83
2022/11/19 17:40:57;;;;;;;6.97;4.90;;;;;;;4.17;100.00;95633.97;4932068;29;20118;-83
2022/11/19 17:46:14;;;;;;;4.10;2.43;;;;;;;4.10;100.00;95638.06;4919256;28;20062;-83
2022/11/19 17:48:42;;;;;;;3.30;2.10;;;;;;;4.12;100.00;95644.78;4902423;29;20118;-83
2022/11/19 17:51:20;;;;;;;4.57;2.60;;;;;;;4.10;100.00;95643.28;4871958;29;20038;-82
2022/11/19 17:53:50;;;;;;;6.83;3.90;;;;;;;4.06;100.00;95639.28;4857385;29;20043;-83
2022/11/19 17:56:20;;;;;;;10.43;7.07;;;;;;;4.05;100.00;95648.88;4879721;28;20126;-80
2022/11/19 17:58:46;;;;;;;8.77;5.50;;;;;;;4.06;100.00;95647.09;4882971;28;21208;-82
2022/11/19 18:01:16;;;;;;;6.87;4.57;;;;;;;4.01;100.00;95645.72;4880906;28;20043;-83
2022/11/19 18:03:42;;;;;;;5.30;2.80;;;;;;;4.07;100.00;95648.75;4867538;29;20482;-83
2022/11/19 18:06:13;;;;;;;3.43;2.03;;;;;;;4.03;100.00;95647.38;4867268;29;20035;-83
2022/11/19 18:08:40;;;;;;;2.43;1.73;;;;;;;3.98;100.00;95648.56;4828150;29;20039;-83
2022/11/19 18:11:12;;;;;;;3.77;2.37;;;;;;;3.97;100.00;95651.31;4839058;29;22764;-82
2022/11/19 18:13:57;;;;;;;9.10;6.00;;;;;;;4.06;100.00;95657.50;4826663;29;20506;-82
2022/11/19 18:16:33;;;;;;;7.80;5.10;;;;;;;4.05;100.00;95653.25;4843832;28;20047;-83
2022/11/19 18:19:00;;;;;;;7.17;4.80;;;;;;;4.04;100.00;95655.03;4889013;28;20046;-83
2022/11/19 18:21:26;;;;;;;8.30;5.20;;;;;;;3.98;100.00;95645.97;4898233;28;20039;-83
2022/11/19 18:23:52;;;;;;;6.20;3.80;;;;;;;3.95;100.00;95656.66;4913196;28;20997;-83
2022/11/19 18:26:21;;;;;;;4.23;2.50;;;;;;;3.95;100.00;95661.84;4885513;28;20049;-83
2022/11/19 18:28:47;;;;;;;3.90;2.63;;;;;;;3.97;100.00;95643.53;4869688;29;20078;-82
2022/11/19 18:31:27;;;;;;;3.83;2.20;;;;;;;4.00;100.00;95651.88;4879257;29;20067;-82
2022/11/19 18:33:54;;;;;;;3.90;2.33;;;;;;;3.99;100.00;95655.44;4867942;29;20067;-83
2022/11/19 18:36:22;;;;;;;3.77;2.20;;;;;;;3.95;100.00;95648.84;4865722;28;20031;-83
2022/11/19 18:38:48;;;;;;;3.23;2.00;;;;;;;3.98;100.00;95647.75;4875706;29;20027;-83
2022/11/19 18:41:17;;;;;;;5.97;3.83;;;;;;;3.98;100.00;95651.19;4898883;29;20097;-83
2022/11/19 18:46:28;;;;;;;6.53;4.33;;;;;;;4.02;100.00;95651.72;4897868;28;20046;-82
2022/11/19 18:48:54;;;;;;;6.57;4.10;;;;;;;4.01;100.00;95661.31;4898710;29;20032;-82
2022/11/19 18:51:39;;;;;;;8.90;5.80;;;;;;;4.09;100.00;95657.22;4898143;28;20031;-83
2022/11/19 18:54:04;;;;;;;8.00;5.43;;;;;;;4.00;100.00;95666.69;4915315;29;20047;-83
2022/11/19 18:56:36;;;;;;;179.03;114.97;;;;;;;4.23;100.00;95662.91;4952381;28;20669;-83
2022/11/19 18:59:16;;;;;;;20.13;14.90;;;;;;;4.08;100.00;95666.00;4937887;29;20050;-83
2022/11/19 19:01:42;;;;;;;9.63;6.73;;;;;;;4.10;100.00;95666.69;4916008;29;20126;-84
2022/11/19 19:04:12;;;;;;;12.53;8.00;;;;;;;4.04;100.00;95664.63;4948790;28;20155;-82
2022/11/19 19:06:40;;;;;;;16.87;11.63;;;;;;;4.06;100.00;95668.75;4919217;29;20081;-83
2022/11/19 19:09:17;;;;;;;14.53;10.30;;;;;;;4.07;100.00;95672.16;4932976;29;20130;-82
2022/11/19 19:14:44;;;;;;;8.23;5.00;;;;;;;4.11;100.00;95665.72;4932257;28;20039;-82
2022/11/19 19:17:14;;;;;;;8.37;4.90;;;;;;;4.06;100.00;95673.94;4914925;29;20031;-82
2022/11/19 19:19:42;;;;;;;8.23;5.17;;;;;;;4.09;100.00;95672.84;4915067;28;20031;-82
2022/11/19 19:22:12;;;;;;;6.63;4.03;;;;;;;3.98;100.00;95671.19;4918882;29;20122;-82
2022/11/19 19:24:41;;;;;;;4.53;3.03;;;;;;;3.93;100.00;95673.38;4882133;29;20043;-82
2022/11/19 19:27:12;;;;;;;7.33;4.73;;;;;;;3.95;100.00;95666.22;4885598;29;20053;-81
2022/11/19 19:29:42;;;;;;;9.60;6.37;;;;;;;4.02;100.00;95672.56;4898221;28;20074;-83
2022/11/19 19:32:09;;;;;;;10.97;7.67;;;;;;;3.99;100.00;95678.00;4882973;29;20718;-82
2022/11/19 19:34:35;;;;;;;12.90;8.07;;;;;;;4.03;100.00;95669.00;4900015;28;20044;-83
2022/11/19 19:37:05;;;;;;;11.80;8.90;;;;;;;4.10;100.00;95674.50;4902365;29;20050;-83
2022/11/19 19:39:31;;;;;;;10.17;7.40;;;;;;;4.12;100.00;95677.78;4884221;28;20074;-82
2022/11/19 19:41:57;;;;;;;10.73;7.07;;;;;;;4.14;100.00;95675.88;4863956;29;20040;-64
2022/11/19 19:44:23;;;;;;;9.37;6.43;;;;;;;4.16;100.00;95679.19;4863750;28;20123;-82
2022/11/19 19:46:49;;;;;;;7.70;5.17;;;;;;;4.15;100.00;95682.72;4843906;29;20043;-81
2022/11/19 19:49:15;;;;;;;7.67;3.93;;;;;;;4.13;100.00;95679.44;4819433;28;21248;-81
2022/11/19 19:51:41;;;;;;;17.80;7.43;;;;;;;4.07;100.00;95677.38;4828500;28;20040;-82
2022/11/19 19:54:07;;;;;;;26.70;8.47;;;;;;;4.09;100.00;95678.91;4828383;28;20051;-81
2022/11/19 19:56:34;;;;;;;13.67;7.10;;;;;;;3.97;100.00;95683.38;4831692;28;20098;-81
2022/11/19 19:59:02;;;;;;;9.03;6.00;;;;;;;4.03;100.00;95683.81;4837198;29;20101;-80
2022/11/19 20:01:30;;;;;;;8.10;5.20;;;;;;;4.06;100.00;95686.13;4808292;28;20763;-81
2022/11/19 20:04:08;;;;;;;7.67;4.67;;;;;;;4.08;100.00;95686.81;4812241;29;20039;-81
2022/11/19 20:06:36;;;;;;;7.87;5.30;;;;;;;4.10;100.00;95687.53;4819179;28;21080;-81
2022/11/19 20:09:03;;;;;;;8.20;5.33;;;;;;;4.05;100.00;95684.47;4799829;29;20039;-82
2022/11/19 20:11:29;;;;;;;7.17;5.23;;;;;;;4.08;100.00;95686.81;4814028;28;20031;-81
2022/11/19 20:13:56;;;;;;;9.63;6.47;;;;;;;4.14;100.00;95681.09;4807559;29;22218;-83
2022/11/19 20:16:27;;;;;;;9.23;6.17;;;;;;;4.11;100.00;95687.38;4784371;28;20039;-82
2022/11/19 20:18:54;;;;;;;7.27;5.10;;;;;;;4.09;100.00;95696.25;4792976;29;20043;-82
2022/11/19 20:21:30;;;;;;;7.63;5.50;;;;;;;4.07;100.00;95691.19;4796799;28;20035;-81
2022/11/19 20:23:59;;;;;;;9.53;5.67;;;;;;;4.11;100.00;95691.75;4811067;29;20493;-81
2022/11/19 20:26:28;;;;;;;9.43;5.67;;;;;;;4.03;100.00;95699.41;4844156;28;20046;-81
2022/11/19 20:29:01;;;;;;;8.57;6.43;;;;;;;4.06;100.00;95696.53;4803171;28;20031;-82
2022/11/19 20:31:28;;;;;;;10.70;6.85;;;;;;;4.06;100.00;95699.97;4817167;28;21373;-81
2022/11/19 20:33:58;;;;;;;19.70;12.50;;;;;;;4.14;100.00;95704.50;4798397;28;20039;-82
2022/11/19 20:36:26;;;;;;;17.83;10.77;;;;;;;4.15;100.00;95695.72;4801677;28;20035;-82
2022/11/19 20:38:52;;;;;;;11.80;8.47;;;;;;;4.13;100.00;95705.47;4794552;29;20122;-81
2022/11/19 20:44:20;;;;;;;8.97;5.33;;;;;;;4.16;100.00;95700.00;4833379;29;20559;-81
2022/11/19 20:46:48;;;;;;;9.13;6.07;;;;;;;4.17;100.00;95707.66;4788765;28;20604;-81
2022/11/19 20:49:17;;;;;;;8.40;6.43;;;;;;;4.14;100.00;95707.09;4849728;28;20054;-82
2022/11/19 20:51:43;;;;;;;8.00;5.93;;;;;;;4.18;100.00;95708.47;4828581;28;20039;-81
2022/11/19 20:54:09;;;;;;;11.40;6.03;;;;;;;4.18;100.00;95709.31;4830175;28;20047;-82
2022/11/19 20:56:36;;;;;;;9.37;7.00;;;;;;;4.24;100.00;95713.16;4788196;28;20077;-81
2022/11/19 20:59:03;;;;;;;11.70;8.10;;;;;;;4.26;100.00;95716.47;4832244;29;20997;-82
2022/11/19 21:01:29;;;;;;;10.07;7.23;;;;;;;4.27;100.00;95715.50;4823188;28;20065;-82
2022/11/19 21:03:56;;;;;;;17.00;11.93;;;;;;;4.22;100.00;95715.88;4866208;28;20034;-82
2022/11/19 21:06:24;;;;;;;9.77;6.93;;;;;;;4.11;100.00;95718.59;4828012;28;20820;-81
2022/11/19 21:08:50;;;;;;;8.73;6.53;;;;;;;4.11;100.00;95718.59;4810062;29;20032;-81
2022/11/19 21:11:15;;;;;;;32.93;19.00;;;;;;;4.14;100.00;95722.72;4787826;29;20047;-82
2022/11/19 21:13:46;;;;;;;16.00;11.57;;;;;;;4.11;100.00;95725.59;4790602;28;20043;-81
2022/11/19 21:16:17;;;;;;;16.07;9.13;;;;;;;4.10;100.00;95726.56;4802850;29;20047;-82
2022/11/19 21:18:44;;;;;;;9.60;6.53;;;;;;;4.08;100.00;95712.84;4799340;28;20058;-81
2022/11/19 21:21:15;;;;;;;8.60;5.67;;;;;;;4.10;100.00;95716.97;4775469;29;20477;-81
2022/11/19 21:23:45;;;;;;;9.37;6.00;;;;;;;4.10;100.00;95713.53;4764593;28;20036;-82
2022/11/19 21:26:19;;;;;;;11.30;7.20;;;;;;;4.13;100.00;95713.28;4764679;29;20062;-81
2022/11/19 21:28:50;;;;;;;9.47;6.60;;;;;;;4.09;100.00;95714.47;4767109;29;20040;-82
2022/11/19 21:31:20;;;;;;;8.40;5.80;;;;;;;4.15;100.00;95716.56;4767913;29;20393;-82
2022/11/19 21:33:47;;;;;;;8.93;5.40;;;;;;;4.10;100.00;95716.16;4737856;29;21319;-81
2022/11/19 21:36:13;;;;;;;9.37;5.77;;;;;;;4.08;100.00;95716.25;4774999;29;20043;-80
2022/11/19 21:38:39;;;;;;;10.50;5.97;;;;;;;4.07;100.00;95716.41;4769776;28;20146;-81
2022/11/19 21:41:07;;;;;;;7.90;4.93;;;;;;;4.06;100.00;95717.34;4793941;29;20130;-81
2022/11/19 21:43:34;;;;;;;7.97;5.10;;;;;;;4.05;100.00;95719.13;4754929;28;20034;-82
2022/11/19 21:46:00;;;;;;;12.67;5.87;;;;;;;4.08;100.00;95720.66;4785379;28;20644;-82
2022/11/19 21:48:26;;;;;;;12.77;4.90;;;;;;;3.98;100.00;95723.22;4754609;28;20042;-80
2022/11/19 21:50:53;;;;;;;85.43;9.47;;;;;;;3.87;100.00;95723.31;4783462;28;20061;-82
2022/11/19 21:53:19;;;;;;;38.23;6.37;;;;;;;3.94;100.00;95721.81;4753981;29;20040;-81
2022/11/19 21:55:48;;;;;;;6.87;4.07;;;;;;;3.87;100.00;95724.13;4746748;28;20031;-82
2022/11/19 21:58:15;;;;;;;7.73;3.83;;;;;;;3.85;100.00;95720.81;4739929;29;20073;-81
2022/11/19 22:00:42;;;;;;;6.20;3.70;;;;;;;3.82;100.00;95728.06;4719598;28;20039;-81
2022/11/19 22:03:08;;;;;;;6.80;3.50;;;;;;;3.88;100.00;95730.97;4728251;29;20133;-81
2022/11/19 22:05:34;;;;;;;5.47;3.10;;;;;;;3.77;100.00;95725.88;4717817;28;20031;-82
2022/11/19 22:08:01;;;;;;;6.63;3.20;;;;;;;3.85;100.00;95728.63;4710079;29;20035;-82
2022/11/19 22:10:28;;;;;;;5.13;3.13;;;;;;;3.80;100.00;95728.22;4682433;28;20035;-82